Saint David, AZ (85630)

6:35 AM MST on October 25, 2014 (GMT -0700)
Saint David Busby-Pederson | Change Station
CLOSE
Current Station
Personal Weather Station
Location: St. David, AZ
Elevation: 3711 ft
Nearby Weather Stations

Elev 3711 ft 31.91 °N, 110.22 °W | Updated 4 minutes ago

Clear
Clear
50.5 °F
Feels Like 50.5 °F
N
2.7
Wind Variable Wind from NNE

Today
High -- | Low -- °F
--% Chance of Precip.
Yesterday
High -- | Low -- °F
Precip. -- in
6:31 AM 5:37 PM
Waxing Crescent, 3% visible
Pressure 30.09 in
Visibility 10.0 miles
Clouds Clear
Dew Point 45 °F
Humidity 82%
Rainfall 0.00 in
Snow Depth Not available.
UV 0 out of 12
Pollen 5.60 out of 12
Air Quality Not available.
Flu Activity No Activity
METAR KFHU 251256Z AUTO 00000KT 10SM CLR 15/07 A3023 RMK AO2 SLP188 T01500072 $

More Conditions Fewer Conditions

Pressure 30.09 in
Visibility 10.0 miles
Clouds Clear
Dew Point 45 °F
Humidity 82%
Rainfall 0.00 in
Snow Depth Not available.
UV 0 out of 12
Pollen 5.60 out of 12
Air Quality Not available.
Flu Activity No Activity
METAR KFHU 251256Z AUTO 00000KT 10SM CLR 15/07 A3023 RMK AO2 SLP188 T01500072 $

More Conditions Fewer Conditions

10-Day Weather Forecast

Almanac

Astronomy

Oct. 25, 2014 Rise Set
Actual Time 6:31 AM MST 5:37 PM MST
Civil Twilight 6:06 AM MST 6:02 PM MST
Nautical Twilight 5:38 AM MST 6:31 PM MST
Astronomical Twilight 5:09 AM MST 6:59 PM MST
Moon 8:09 AM MST 7:08 PM MST
Length of Visible Light 11h 55m
Length of Day
11h 05m
Tomorrow will be 1m 47s shorter.
Waxing Crescent, 3% of the Moon is Illuminated
Today
Waxing Crescent
Oct 30
First Quarter
Nov 6
Full
Nov 14
Last Quarter
Nov 22
New

Today's Extremes

State Highs State Lows

Community

WunderPhotos

Upload Photos

1,764,829 photos uploaded!

Nearby

Snow Depth

Station Depth Elevation
Hannagan Meadows 1 in 9020 ft
Wildcat 0 in 7850 ft
Beaver Head 2 in 7990 ft
Workman Creek 1 in 6900 ft
Coronado Trail 0 in 8400 ft

Earthquake Activity

City Distance Mag. Time & Date
No recent earthquake activity has been reported nearby.
Minimum magnitude displayed is 2.5.

Coastal Water Temperatures

Place Temperature
No Stations Reporting

Nearby Weather Stations